Local and Regional Airport Weather



KPVE - Beech River Regional Airport
Distance from station: NW 4mi, 6km
Updated: Wed, Dec-11-2019 7:35am CST
Clear
Clear
 Wind from calm
Wind: Calm
Temperature: 23°F , -5°C
Dew Point: 23°F , -5°C
Humidity: 100%
Barometer: 30.51 inHg , 1033.2 hPa
Clouds: Clear
Visibility: 10 miles , 16 km
2019/12/11 13:35 KPVE 111335Z AUTO 00000KT 10SM CLR M05/M05 A3051 RMK A01
KSNH - Savannah Hardin Co. Airport
Distance from station: S 34mi, 54km
Updated: Wed, Dec-11-2019 7:35am CST
Clear
Clear
 Wind from calm
Wind: Calm
Temperature: 27°F , -3°C
Dew Point: 27°F , -3°C
Humidity: 100%
Barometer: 30.52 inHg , 1033.5 hPa
Clouds: Clear
Visibility: 10 miles , 16 km
2019/12/11 13:35 KSNH 111335Z AUTO 00000KT 10SM CLR M03/M03 A3052 RMK A01
 
KMKL - McKellar-Sipes Regional Airport
Distance from station: W 44mi, 72km
Updated: Wed, Dec-11-2019 6:53am CST
Clear
Clear
 Wind from calm
Wind: Calm
Temperature: 21°F , -6°C
Dew Point: 19°F , -7°C
Humidity: 93%
Barometer: 30.52 inHg , 1033.5 hPa
Clouds: Clear
Visibility: 10 miles , 16 km
2019/12/11 12:53 KMKL 111253Z 00000KT 10SM CLR M06/M07 A3052 RMK AO2 SLP338 I1000 T10561067 $
KMSL - NW Alabama Regional Airport
Distance from station: SE 78mi, 126km
Updated: Wed, Dec-11-2019 6:53am CST
Clear
Clear
 Wind from calm
Wind: Calm
Temperature: 30°F , -1°C
Dew Point: 25°F , -4°C
Humidity: 80%
Barometer: 30.51 inHg , 1033.2 hPa
Clouds: Clear
Visibility: 10 miles , 16 km
2019/12/11 12:53 KMSL 111253Z AUTO 00000KT 10SM CLR M01/M04 A3051 RMK AO2 SLP336 T10111039 $
 
KBNA - Nashville International Airport
Distance from station: NE 97mi, 157km
Updated: Wed, Dec-11-2019 6:53am CST
Few Clouds
Few Clouds
 Wind from S
Wind: S 3 mph , 6 km/h
Temperature: 25°F , -4°C
Dew Point: 21°F , -6°C
Humidity: 86%
Barometer: 30.51 inHg , 1033.2 hPa
Clouds: Few Clouds
Visibility: 10 miles , 16 km
Cloud details: Few Clouds 1200 ft
2019/12/11 12:53 KBNA 111253Z 17003KT 10SM FEW012 M04/M06 A3051 RMK AO2 SLP338 I1001 T10391061
KMEM - Memphis International Airport
Distance from station: W 108mi, 173km
Updated: Wed, Dec-11-2019 6:54am CST
Clear
Clear
 Wind from S
Wind: S 3 mph , 6 km/h
Temperature: 27°F , -3°C
Dew Point: 21°F , -6°C
Humidity: 80%
Barometer: 30.51 inHg , 1033.2 hPa
Clouds: Clear
Visibility: 10 miles , 16 km
2019/12/11 12:54 KMEM 111254Z 19003KT 10SM CLR M03/M06 A3051 RMK AO2 SLP336 T10331056
 
KTYS - Knoxville McGhee Tyson Airport
Distance from station: E 234mi, 377km
Updated: Wed, Dec-11-2019 6:53am CST
Few Clouds
Few Clouds
 Wind from calm
Wind: Calm
Temperature: 28°F , -2°C
Dew Point: 25°F , -4°C
Humidity: 86%
Barometer: 30.47 inHg , 1031.8 hPa
Clouds: Few Clouds
Visibility: 10 miles , 16 km
Cloud details: Few Clouds 100 ft
Few Clouds 13000 ft
2019/12/11 12:53 KTYS 111253Z 00000KT 10SM FEW001 FEW130 M02/M04 A3047 RMK AO2 SLP326 T10221039
KSTL - St. Louis International Airport
Distance from station: NW 247mi, 398km
Updated: Wed, Dec-11-2019 6:51am CST
Few Clouds
Few Clouds
 Wind from S
Wind: S 6 mph , 9 km/h
Temperature: 25°F , -4°C
Wind Chill: 18°F , -8°C
Dew Point: 16°F , -9°C
Humidity: 69%
Barometer: 30.41 inHg , 1029.8 hPa
Clouds: Few Clouds
Visibility: 10 miles , 16 km
Cloud details: Few Clouds 15000 ft
2019/12/11 12:51 KSTL 111251Z 17005KT 10SM FEW150 M04/M09 A3041 RMK AO2 SLP312 T10441094

Refresh Page for latest data.